首页
METAR-TAF:

METAR-TAF

机场 :

Northolt, 英格兰

纬度: 51-33N, 经度: 000-25W, 海拔: 38米

当前天气观测

该预报发布于21分钟前的01:50 UTC
风速7节,风向
温度 6°C
湿度 93%
气压 988 hPa
能見度: 5000

METAR: EGWU 140150Z AUTO 09007KT 5000 // SCT023/// BKN027/// 06/05 Q0988

时间: 02:11 (02:11 UTC)

预报

该预报发布于6小时和14分钟前的19:57 UTC
预报有效从13日的 21点(UTC)到 14日的 15点(UTC)
风速10节,风向东南
能见度10公里或以上
多云层高于2500英尺
成为
从 13日的 21点(UTC)到 13日的 23点(UTC)
多云层高于1800英尺
短暂存在
从 13日的 21点(UTC)到 14日的 10点(UTC)
能見度: 7000
成为
从 13日的 22点(UTC)到 14日的 01点(UTC)
多云层高于1000英尺
几率 30% :
短暂存在
从 13日的 22点(UTC)到 14日的 04点(UTC)
能見度: 4000
大雨
几率 30% :
短暂存在
从 14日的 03点(UTC)到 14日的 10点(UTC)
能見度: 3000
散云层高于600英尺
雨, 毛毛雨

TAF: EGWU 131957Z 1321/1415 14010KT 9999 BKN025 BECMG 1321/1323 BKN018 TEMPO 1321/1410 7000 RA BECMG 1322/1401 BKN010 PROB30 TEMPO 1322/1404 4000 +RA PROB30 TEMPO 1403/1410 3000 RADZ SCT006

超过4000个机场的气象观测和天气预报(METAR&TAF报告)。

可查询的气象台以黄色和红色小点在地图上表示。

将鼠标移到小点上方,可查看气象台名称。

然后点击查看天气观测和预报。

如需切换地图:点击带黑十字的绿色按钮放大地图;点击带横线的绿色按钮缩小地图;或者点击绿色箭头查看邻近地区的地图。


METAR-TAF: